createdAt,value
2022-08-21T00:01:55.496Z,101562.41
2022-08-21T00:04:29.455Z,101562.34
2022-08-21T00:06:59.130Z,101565.13
2022-08-21T00:09:27.675Z,101556.03
2022-08-21T00:11:56.041Z,101553.41
2022-08-21T00:14:24.378Z,101554.22
2022-08-21T00:16:57.269Z,101561.34
2022-08-21T00:19:29.557Z,101552.34
2022-08-21T00:21:57.919Z,101555.91
2022-08-21T00:24:27.610Z,101549.88
2022-08-21T00:26:56.240Z,101551.81
2022-08-21T00:29:24.465Z,101554.66
2022-08-21T00:31:54.383Z,101553.03
2022-08-21T00:34:22.961Z,101551.22
2022-08-21T00:36:51.354Z,101526.53
2022-08-21T00:39:19.815Z,101545.00
2022-08-21T00:41:48.139Z,101543.31
2022-08-21T00:44:18.449Z,101542.47
2022-08-21T00:46:47.591Z,101545.19
2022-08-21T00:49:17.307Z,101535.38
2022-08-21T00:51:51.954Z,101538.97
2022-08-21T00:54:25.574Z,101537.22
2022-08-21T00:57:00.629Z,101542.56
2022-08-21T00:59:31.877Z,101537.22
2022-08-21T01:02:00.453Z,101535.47
2022-08-21T01:04:30.089Z,101532.81
2022-08-21T01:06:58.705Z,101532.81
2022-08-21T01:09:27.091Z,101530.22
2022-08-21T01:11:55.859Z,101528.47
2022-08-21T01:14:24.346Z,101532.19
2022-08-21T01:16:55.071Z,101529.63
2022-08-21T01:19:24.373Z,101524.53
2022-08-21T01:21:55.408Z,101502.75
2022-08-21T01:24:24.635Z,101520.63
2022-08-21T01:26:53.962Z,101524.28
2022-08-21T01:29:33.955Z,101520.03
2022-08-21T01:32:08.918Z,101528.22
2022-08-21T01:34:41.302Z,101525.81
2022-08-21T01:37:11.191Z,101494.84
2022-08-21T01:39:40.298Z,101529.56
2022-08-21T01:42:09.656Z,101525.16
2022-08-21T01:44:38.366Z,101518.13
2022-08-21T01:47:10.698Z,101512.78
2022-08-21T01:49:41.731Z,101514.59
2022-08-21T01:52:12.574Z,101508.38
2022-08-21T01:54:41.612Z,101515.47
2022-08-21T01:57:11.709Z,101505.00
2022-08-21T01:59:40.160Z,101506.78
2022-08-21T02:02:08.895Z,101502.38
2022-08-21T02:04:37.184Z,101501.41
2022-08-21T02:07:07.122Z,101497.13
2022-08-21T02:09:43.105Z,101492.97
2022-08-21T02:12:11.789Z,101470.72
2022-08-21T02:14:40.110Z,101486.59
2022-08-21T02:17:09.802Z,101491.13
2022-08-21T02:19:40.756Z,101465.72
2022-08-21T02:22:10.409Z,101492.84
2022-08-21T02:24:53.839Z,101498.63
2022-08-21T02:27:26.077Z,101490.22
2022-08-21T02:29:57.661Z,101498.13
2022-08-21T02:32:26.795Z,101498.03
2022-08-21T02:34:55.297Z,101484.78
2022-08-21T02:37:23.971Z,101497.13
2022-08-21T02:39:53.781Z,101495.34
2022-08-21T02:42:22.259Z,101489.13
2022-08-21T02:44:50.534Z,101495.25
2022-08-21T02:47:18.883Z,101493.47
2022-08-21T02:49:47.236Z,101489.13
2022-08-21T02:52:15.725Z,101486.59
2022-08-21T02:54:44.064Z,101492.91
2022-08-21T02:57:13.812Z,101492.97
2022-08-21T02:59:42.464Z,101492.97
2022-08-21T03:02:12.482Z,101488.31
2022-08-21T03:04:45.998Z,101483.00
2022-08-21T03:07:16.275Z,101477.56
2022-08-21T03:09:55.096Z,101478.41
2022-08-21T03:12:27.862Z,101474.78
2022-08-21T03:14:58.347Z,101481.91
2022-08-21T03:17:29.339Z,101476.66
2022-08-21T03:19:58.967Z,101470.41
2022-08-21T03:22:27.435Z,101468.78
2022-08-21T03:24:58.279Z,101467.97
2022-08-21T03:27:29.759Z,101465.38
2022-08-21T03:29:59.089Z,101463.72
2022-08-21T03:32:27.385Z,101462.09
2022-08-21T03:34:55.775Z,101459.59
2022-08-21T03:37:25.364Z,101463.97
2022-08-21T03:39:53.887Z,101455.97
2022-08-21T03:42:22.565Z,101449.75
2022-08-21T03:44:52.338Z,101457.25
2022-08-21T03:47:20.722Z,101453.66
2022-08-21T03:49:48.972Z,101456.34
2022-08-21T03:52:17.950Z,101458.00
2022-08-21T03:54:47.348Z,101457.16
2022-08-21T03:57:16.326Z,101457.09
2022-08-21T03:59:45.351Z,101445.47
2022-08-21T04:02:19.261Z,101448.16
2022-08-21T04:04:47.546Z,101449.13
2022-08-21T04:07:15.906Z,101458.19
2022-08-21T04:09:44.273Z,101456.34
2022-08-21T04:12:12.521Z,101444.97
2022-08-21T04:14:40.808Z,101453.91
2022-08-21T04:17:09.072Z,101456.59
2022-08-21T04:19:38.723Z,101463.69
2022-08-21T04:22:07.110Z,101470.78
2022-08-21T04:24:35.689Z,101471.78
2022-08-21T04:27:03.950Z,101471.59
2022-08-21T04:29:32.386Z,101476.97
2022-08-21T04:32:00.653Z,101475.25
2022-08-21T04:34:28.968Z,101480.56
2022-08-21T04:36:58.527Z,101480.69
2022-08-21T04:39:29.797Z,101478.97
2022-08-21T04:41:58.280Z,101486.13
2022-08-21T04:44:26.606Z,101488.75
2022-08-21T04:46:54.896Z,101377.97
2022-08-21T04:49:23.382Z,101491.44
2022-08-21T04:51:51.957Z,101500.19
2022-08-21T04:54:24.382Z,101499.31
2022-08-21T04:56:56.846Z,101507.34
2022-08-21T04:59:29.575Z,101498.34
2022-08-21T05:01:58.621Z,101500.06
2022-08-21T05:04:32.130Z,101502.56
2022-08-21T05:07:05.048Z,101500.59
2022-08-21T05:09:35.575Z,101507.63
2022-08-21T05:12:05.292Z,101505.63
2022-08-21T05:14:34.053Z,101502.75
2022-08-21T05:17:02.302Z,101498.13
2022-08-21T05:19:30.648Z,101492.56
2022-08-21T05:21:59.404Z,101499.47
2022-08-21T05:24:27.910Z,101504.50
2022-08-21T05:26:57.532Z,101497.19
2022-08-21T05:29:25.750Z,101503.19
2022-08-21T05:31:55.223Z,101502.97
2022-08-21T05:34:25.472Z,101502.56
2022-08-21T05:36:53.792Z,101494.19
2022-08-21T05:39:22.032Z,101502.78
2022-08-21T05:41:50.339Z,101500.56
2022-08-21T05:44:20.481Z,101502.13
2022-08-21T05:46:50.703Z,101502.78
2022-08-21T05:49:19.367Z,101490.00
2022-08-21T05:51:47.759Z,101490.28
2022-08-21T05:54:16.052Z,101491.19
2022-08-21T05:56:45.570Z,101501.41
2022-08-21T05:59:14.067Z,101500.78
2022-08-21T06:01:43.983Z,101510.78
2022-08-21T06:04:12.251Z,101508.53
2022-08-21T06:06:40.587Z,101516.75
2022-08-21T06:09:09.288Z,101508.59
2022-08-21T06:11:37.934Z,101506.53
2022-08-21T06:14:07.426Z,101518.44
2022-08-21T06:16:35.717Z,101513.53
2022-08-21T06:19:05.395Z,101441.38
2022-08-21T06:21:33.851Z,101490.91
2022-08-21T06:24:02.111Z,101499.72
2022-08-21T06:26:30.469Z,101508.72
2022-08-21T06:28:58.814Z,101510.19
2022-08-21T06:31:29.723Z,101515.88
2022-08-21T06:33:58.699Z,101515.59
2022-08-21T06:36:28.509Z,101511.00
2022-08-21T06:38:57.153Z,101509.03
2022-08-21T06:41:27.035Z,101506.44
2022-08-21T06:43:57.139Z,101511.56
2022-08-21T06:46:27.002Z,101517.56
2022-08-21T06:48:55.451Z,101493.41
2022-08-21T06:51:23.916Z,101515.44
2022-08-21T06:53:53.666Z,101513.88
2022-08-21T06:56:22.787Z,101523.47
2022-08-21T06:58:51.142Z,101519.81
2022-08-21T07:01:19.554Z,101512.88
2022-08-21T07:03:47.907Z,101514.03
2022-08-21T07:06:16.189Z,101508.25
2022-08-21T07:08:45.170Z,101500.88
2022-08-21T07:11:20.403Z,101510.56
2022-08-21T07:13:49.409Z,101518.59
2022-08-21T07:16:17.688Z,101516.56
2022-08-21T07:18:46.051Z,101521.81
2022-08-21T07:21:14.603Z,101527.94
2022-08-21T07:23:46.797Z,101530.91
2022-08-21T07:26:19.314Z,101530.81
2022-08-21T07:28:47.768Z,101522.47
2022-08-21T07:31:18.912Z,101518.50
2022-08-21T07:33:48.030Z,101524.03
2022-08-21T07:36:16.895Z,101514.91
2022-08-21T07:38:45.989Z,101519.63
2022-08-21T07:41:21.122Z,101520.09
2022-08-21T07:43:49.636Z,101521.53
2022-08-21T07:46:21.346Z,101527.38
2022-08-21T07:48:49.734Z,101536.63
2022-08-21T07:51:20.456Z,101531.13
2022-08-21T07:53:52.028Z,101532.63
2022-08-21T07:56:22.219Z,101531.25
2022-08-21T07:58:50.814Z,101529.81
2022-08-21T08:01:19.992Z,101528.34
2022-08-21T08:03:48.867Z,101531.66
2022-08-21T08:06:19.608Z,101524.75
2022-08-21T08:08:48.446Z,101527.75
2022-08-21T08:11:17.954Z,101511.72
2022-08-21T08:13:50.899Z,101517.94
2022-08-21T08:16:20.405Z,101518.31
2022-08-21T08:18:49.006Z,101438.22
2022-08-21T08:21:19.766Z,101516.69
2022-08-21T08:23:48.055Z,101510.94
2022-08-21T08:26:16.636Z,101514.97
2022-08-21T08:28:45.016Z,101522.66
2022-08-21T08:31:14.688Z,101529.22
2022-08-21T08:33:43.094Z,101511.63
2022-08-21T08:36:16.716Z,101526.16
2022-08-21T08:38:45.420Z,101513.47
2022-08-21T08:41:17.209Z,101499.13
2022-08-21T08:43:53.111Z,101511.41
2022-08-21T08:46:34.061Z,101506.00
2022-08-21T08:49:08.801Z,101509.91
2022-08-21T08:51:46.469Z,101505.06
2022-08-21T08:54:19.955Z,101504.44
2022-08-21T08:56:48.711Z,101507.06
2022-08-21T08:59:21.879Z,101501.84
2022-08-21T09:01:52.324Z,101513.44
2022-08-21T09:04:23.588Z,101494.34
2022-08-21T09:07:07.210Z,101515.75
2022-08-21T09:09:50.815Z,101515.41
2022-08-21T09:12:33.302Z,101520.09
2022-08-21T09:15:12.096Z,101518.91
2022-08-21T09:18:07.668Z,101515.22
2022-08-21T09:20:43.569Z,101524.94
2022-08-21T09:23:26.464Z,101505.75
2022-08-21T09:26:05.000Z,101523.47
2022-08-21T09:28:35.726Z,101509.47
2022-08-21T09:31:08.634Z,101532.72
2022-08-21T09:33:38.277Z,101522.38
2022-08-21T09:36:07.257Z,101527.25
2022-08-21T09:38:38.893Z,101544.06
2022-08-21T09:41:10.915Z,101531.66
2022-08-21T09:43:40.412Z,101529.31
2022-08-21T09:46:14.390Z,101522.38
2022-08-21T09:48:48.217Z,101521.09
2022-08-21T09:51:23.979Z,101516.19
2022-08-21T09:54:00.462Z,101515.38
2022-08-21T09:56:50.985Z,101517.81
2022-08-21T09:59:35.698Z,101492.94
2022-08-21T10:02:30.357Z,101519.06
2022-08-21T10:05:07.219Z,101512.78
2022-08-21T10:07:39.184Z,101489.94
2022-08-21T10:10:11.537Z,101494.25
2022-08-21T10:12:51.254Z,101501.19
2022-08-21T10:15:39.139Z,101515.97
2022-08-21T10:18:23.455Z,101513.69
2022-08-21T10:21:03.311Z,101511.66
2022-08-21T10:23:47.709Z,101515.63
2022-08-21T10:26:33.235Z,101510.16
2022-08-21T10:29:10.937Z,101508.38
2022-08-21T10:31:51.925Z,101496.41
2022-08-21T10:34:34.697Z,101508.81
2022-08-21T10:37:27.595Z,101510.09
2022-08-21T10:40:11.117Z,101513.31
2022-08-21T10:42:58.298Z,101525.06
2022-08-21T10:45:41.650Z,101513.50
2022-08-21T10:48:16.511Z,101524.25
2022-08-21T10:50:54.588Z,101511.38
2022-08-21T10:53:44.284Z,101520.09
2022-08-21T10:56:19.545Z,101517.41
2022-08-21T10:59:03.193Z,101513.75
2022-08-21T11:01:43.561Z,101523.88
2022-08-21T11:04:20.870Z,101526.31
2022-08-21T11:06:54.655Z,101521.91
2022-08-21T11:09:28.136Z,101529.31
2022-08-21T11:12:11.405Z,101528.22
2022-08-21T11:14:50.821Z,101525.50
2022-08-21T11:17:26.690Z,101524.84
2022-08-21T11:20:04.839Z,101524.38
2022-08-21T11:22:40.531Z,101525.22
2022-08-21T11:25:18.081Z,101525.94
2022-08-21T11:27:53.585Z,101531.13
2022-08-21T11:30:22.854Z,101532.41
2022-08-21T11:33:15.903Z,101538.94
2022-08-21T11:35:53.753Z,101542.84
2022-08-21T11:38:39.713Z,101537.69
2022-08-21T11:41:30.295Z,101543.31
2022-08-21T11:44:06.305Z,101542.13
2022-08-21T11:46:45.367Z,101527.78
2022-08-21T11:49:41.411Z,101532.75
2022-08-21T11:52:17.402Z,101536.81
2022-08-21T11:54:49.781Z,101538.66
2022-08-21T11:57:25.682Z,101540.97
2022-08-21T12:00:01.743Z,101534.59
2022-08-21T12:02:37.553Z,101535.75
2022-08-21T12:05:09.511Z,101534.06
2022-08-21T12:07:41.299Z,101545.16
2022-08-21T12:10:14.669Z,101534.97
2022-08-21T12:12:46.642Z,101541.28
2022-08-21T12:15:28.427Z,101537.38
2022-08-21T12:18:01.953Z,101550.13
2022-08-21T12:20:50.192Z,101549.75
2022-08-21T12:23:31.427Z,101551.38
2022-08-21T12:26:21.004Z,101554.53
2022-08-21T12:28:51.336Z,101552.53
2022-08-21T12:31:23.314Z,101550.50
2022-08-21T12:34:00.556Z,101541.28
2022-08-21T12:36:42.498Z,101560.84
2022-08-21T12:39:20.537Z,101542.53
2022-08-21T12:41:53.741Z,101555.59
2022-08-21T12:44:32.237Z,101562.19
2022-08-21T12:47:08.010Z,101552.38
2022-08-21T12:49:39.833Z,101558.31
2022-08-21T12:52:21.835Z,101563.25
2022-08-21T12:54:50.735Z,101556.84
2022-08-21T12:57:25.471Z,101554.81
2022-08-21T13:00:00.846Z,101557.06
2022-08-21T13:02:33.697Z,101561.78
2022-08-21T13:05:08.306Z,101558.13
2022-08-21T13:07:39.481Z,101557.22
2022-08-21T13:10:20.981Z,101536.31
2022-08-21T13:12:50.702Z,101555.97
2022-08-21T13:15:30.381Z,101558.16
2022-08-21T13:18:04.451Z,101557.41
2022-08-21T13:20:36.874Z,101551.47
2022-08-21T13:23:23.285Z,101530.66
2022-08-21T13:25:51.830Z,101548.16
2022-08-21T13:28:20.156Z,101555.31
2022-08-21T13:30:52.283Z,101555.31
2022-08-21T13:33:25.136Z,101552.59
2022-08-21T13:36:12.114Z,101547.59
2022-08-21T13:38:44.206Z,101515.06
2022-08-21T13:41:22.772Z,101456.38
2022-08-21T13:43:59.903Z,101547.34
2022-08-21T13:46:35.960Z,101552.75
2022-08-21T13:49:07.320Z,101549.09
2022-08-21T13:51:37.378Z,101550.38
2022-08-21T13:54:21.242Z,101554.06
2022-08-21T13:56:49.767Z,101551.81
2022-08-21T13:59:29.220Z,101536.34
2022-08-21T14:02:02.382Z,101552.19
2022-08-21T14:04:37.812Z,101560.25
2022-08-21T14:07:19.995Z,101564.22
2022-08-21T14:09:49.338Z,101549.31
2022-08-21T14:12:23.835Z,101564.78
2022-08-21T14:14:54.174Z,101553.78
2022-08-21T14:17:33.529Z,101563.53
2022-08-21T14:20:02.714Z,101559.75
2022-08-21T14:22:42.129Z,101551.84
2022-08-21T14:25:14.688Z,101549.47
2022-08-21T14:27:54.258Z,101566.44
2022-08-21T14:30:30.317Z,101560.88
2022-08-21T14:33:00.586Z,101562.88
2022-08-21T14:35:29.209Z,101537.44
2022-08-21T14:37:58.200Z,101552.66
2022-08-21T14:40:27.591Z,101566.28
2022-08-21T14:42:56.404Z,101560.00
2022-08-21T14:45:30.159Z,101556.84
2022-08-21T14:48:00.914Z,101553.34
2022-08-21T14:50:29.302Z,101550.38
2022-08-21T14:52:57.770Z,101542.16
2022-08-21T14:55:26.687Z,101546.84
2022-08-21T14:57:57.118Z,101550.34
2022-08-21T15:00:35.765Z,101550.84
2022-08-21T15:03:06.176Z,101548.75
2022-08-21T15:05:34.764Z,101558.00
2022-08-21T15:08:03.380Z,101549.59
2022-08-21T15:10:35.078Z,101553.53
2022-08-21T15:13:04.552Z,101553.88
2022-08-21T15:15:38.439Z,101555.16
2022-08-21T15:18:08.353Z,101552.56
2022-08-21T15:20:37.121Z,101550.16
2022-08-21T15:23:07.018Z,101546.47
2022-08-21T15:25:37.475Z,101549.06
2022-08-21T15:28:06.272Z,101544.66
2022-08-21T15:30:34.799Z,101539.31
2022-08-21T15:33:03.130Z,101540.44
2022-08-21T15:35:33.435Z,101538.28
2022-08-21T15:38:01.722Z,101539.81
2022-08-21T15:40:30.231Z,101545.03
2022-08-21T15:43:01.948Z,101545.34
2022-08-21T15:45:31.186Z,101510.13
2022-08-21T15:47:59.962Z,101552.09
2022-08-21T15:50:28.539Z,101543.25
2022-08-21T15:52:58.276Z,101547.38
2022-08-21T15:55:27.000Z,101559.03
2022-08-21T15:57:56.780Z,101552.03
2022-08-21T16:00:27.257Z,101549.41
2022-08-21T16:02:59.862Z,101500.09
2022-08-21T16:05:28.602Z,101545.53
2022-08-21T16:07:58.258Z,101551.56
2022-08-21T16:10:29.877Z,101550.97
2022-08-21T16:13:04.872Z,101553.66
2022-08-21T16:15:33.348Z,101548.75
2022-08-21T16:18:01.657Z,101545.41
2022-08-21T16:20:31.686Z,101431.59
2022-08-21T16:23:01.800Z,101543.16
2022-08-21T16:25:30.321Z,101549.38
2022-08-21T16:28:04.111Z,101548.56
2022-08-21T16:30:34.443Z,101545.41
2022-08-21T16:33:05.546Z,101544.03
2022-08-21T16:35:34.251Z,101546.66
2022-08-21T16:38:04.163Z,101544.19
2022-08-21T16:40:32.594Z,101552.50
2022-08-21T16:43:00.995Z,101549.00
2022-08-21T16:45:33.012Z,101547.47
2022-08-21T16:48:04.394Z,101548.25
2022-08-21T16:50:32.827Z,101546.53
2022-08-21T16:53:01.176Z,101512.28
2022-08-21T16:55:31.062Z,101545.09
2022-08-21T16:58:01.093Z,101545.34
2022-08-21T17:00:29.414Z,101545.53
2022-08-21T17:02:58.248Z,101541.25
2022-08-21T17:05:26.682Z,101542.63
2022-08-21T17:07:55.136Z,101536.94
2022-08-21T17:10:23.446Z,101542.84
2022-08-21T17:12:58.520Z,101541.88
2022-08-21T17:15:33.248Z,101546.16
2022-08-21T17:18:02.273Z,101543.09
2022-08-21T17:20:31.462Z,101545.81
2022-08-21T17:23:00.101Z,101534.69
2022-08-21T17:25:28.815Z,101534.69
2022-08-21T17:27:59.554Z,101536.94
2022-08-21T17:30:28.282Z,101540.25
2022-08-21T17:32:58.786Z,101541.31
2022-08-21T17:35:27.468Z,101540.75
2022-08-21T17:37:55.731Z,101536.38
2022-08-21T17:40:25.892Z,101544.75
2022-08-21T17:42:54.247Z,101538.84
2022-08-21T17:45:24.361Z,101539.47
2022-08-21T17:47:52.784Z,101537.66
2022-08-21T17:50:22.427Z,101538.16
2022-08-21T17:52:51.610Z,101539.34
2022-08-21T17:55:21.052Z,101530.34
2022-08-21T17:57:53.214Z,101528.03
2022-08-21T18:00:25.206Z,101525.63
2022-08-21T18:03:01.895Z,101530.19
2022-08-21T18:05:30.813Z,101536.16
2022-08-21T18:07:59.473Z,101532.91
2022-08-21T18:10:28.297Z,101544.56
2022-08-21T18:12:57.060Z,101534.06
2022-08-21T18:15:26.925Z,101529.31
2022-08-21T18:17:55.332Z,101535.44
2022-08-21T18:20:25.206Z,101535.53
2022-08-21T18:22:53.747Z,101540.44
2022-08-21T18:25:22.486Z,101530.66
2022-08-21T18:27:52.405Z,101527.88
2022-08-21T18:30:26.717Z,101512.41
2022-08-21T18:32:56.668Z,101527.41
2022-08-21T18:35:26.139Z,101528.13
2022-08-21T18:37:54.516Z,101508.47
2022-08-21T18:40:23.073Z,101516.22
2022-08-21T18:42:55.690Z,101520.69
2022-08-21T18:45:26.209Z,101529.28
2022-08-21T18:47:58.688Z,101527.69
2022-08-21T18:50:29.193Z,101511.09
2022-08-21T18:52:57.747Z,101522.50
2022-08-21T18:55:27.466Z,101550.16
2022-08-21T18:57:57.758Z,101529.28
2022-08-21T19:00:30.596Z,101530.81
2022-08-21T19:03:00.171Z,101539.44
2022-08-21T19:05:29.468Z,101534.31
2022-08-21T19:07:59.063Z,101531.97
2022-08-21T19:10:29.471Z,101534.75
2022-08-21T19:13:01.125Z,101542.16
2022-08-21T19:15:32.227Z,101537.75
2022-08-21T19:18:00.878Z,101545.88
2022-08-21T19:20:34.455Z,101539.56
2022-08-21T19:23:05.299Z,101541.25
2022-08-21T19:25:35.616Z,101552.44
2022-08-21T19:28:11.360Z,101551.81
2022-08-21T19:33:38.150Z,101548.97
2022-08-21T19:36:10.262Z,101531.91
2022-08-21T19:38:39.922Z,101539.09
2022-08-21T19:41:11.790Z,101553.97
2022-08-21T19:43:44.890Z,101546.97
2022-08-21T19:46:27.586Z,101551.56
2022-08-21T19:48:57.749Z,101541.72
2022-08-21T19:51:26.706Z,101545.50
2022-08-21T19:53:57.279Z,101545.34
2022-08-21T19:56:29.382Z,101529.09
2022-08-21T19:58:59.133Z,101554.78
2022-08-21T20:01:29.625Z,101542.44
2022-08-21T20:04:00.773Z,101543.38
2022-08-21T20:06:29.180Z,101550.19
2022-08-21T20:08:57.653Z,101552.88
2022-08-21T20:11:34.679Z,101544.03
2022-08-21T20:14:03.621Z,101544.38
2022-08-21T20:16:33.809Z,101546.50
2022-08-21T20:19:04.772Z,101535.28
2022-08-21T20:21:43.616Z,101551.34
2022-08-21T20:24:14.538Z,101551.75
2022-08-21T20:26:49.277Z,101553.41
2022-08-21T20:29:24.361Z,101552.56
2022-08-21T20:32:02.541Z,101552.41
2022-08-21T20:34:33.158Z,101549.72
2022-08-21T20:37:02.684Z,101465.81
2022-08-21T20:39:33.996Z,101544.31
2022-08-21T20:42:02.356Z,101562.78
2022-08-21T20:44:33.738Z,101562.78
2022-08-21T20:47:08.865Z,101558.53
2022-08-21T20:49:45.626Z,101562.00
2022-08-21T20:52:17.889Z,101547.97
2022-08-21T20:54:54.100Z,101563.94
2022-08-21T20:57:32.723Z,101564.84
2022-08-21T21:00:09.455Z,101561.47
2022-08-21T21:02:55.428Z,101563.41
2022-08-21T21:05:28.396Z,101568.63
2022-08-21T21:08:05.124Z,101561.31
2022-08-21T21:10:44.828Z,101566.72
2022-08-21T21:13:23.430Z,101562.22
2022-08-21T21:15:57.133Z,101563.13
2022-08-21T21:18:36.488Z,101564.03
2022-08-21T21:21:18.334Z,101562.66
2022-08-21T21:23:52.015Z,101560.31
2022-08-21T21:26:29.262Z,101560.38
2022-08-21T21:29:06.037Z,101559.75
2022-08-21T21:31:39.124Z,101560.44
2022-08-21T21:34:17.261Z,101561.47
2022-08-21T21:36:56.263Z,101557.28
2022-08-21T21:39:36.288Z,101561.66
2022-08-21T21:42:16.234Z,101551.94
2022-08-21T21:45:04.948Z,101560.41
2022-08-21T21:47:46.106Z,101565.72
2022-08-21T21:50:35.442Z,101556.47
2022-08-21T21:53:20.953Z,101553.38
2022-08-21T21:56:07.502Z,101555.66
2022-08-21T21:59:06.338Z,101556.94
2022-08-21T22:01:42.991Z,101563.22
2022-08-21T22:04:20.893Z,101558.09
2022-08-21T22:07:09.488Z,101560.59
2022-08-21T22:09:46.926Z,101561.59
2022-08-21T22:12:49.834Z,101542.16
2022-08-21T22:15:27.410Z,101549.19
2022-08-21T22:18:03.402Z,101561.88
2022-08-21T22:20:38.381Z,101552.91
2022-08-21T22:23:15.954Z,101556.34
2022-08-21T22:25:48.618Z,101564.03
2022-08-21T22:28:25.416Z,101559.78
2022-08-21T22:30:57.674Z,101460.69
2022-08-21T22:33:30.355Z,101553.84
2022-08-21T22:35:59.679Z,101557.78
2022-08-21T22:38:37.093Z,101568.41
2022-08-21T22:41:17.371Z,101568.41
2022-08-21T22:43:55.678Z,101564.56
2022-08-21T22:46:33.562Z,101563.63
2022-08-21T22:49:08.070Z,101563.63
2022-08-21T22:51:41.453Z,101538.16
2022-08-21T22:54:22.045Z,101555.31
2022-08-21T22:57:06.973Z,101534.75
2022-08-21T22:59:42.010Z,101557.00
2022-08-21T23:02:31.186Z,101555.13
2022-08-21T23:05:02.209Z,101525.97
2022-08-21T23:10:34.014Z,101542.16
2022-08-21T23:13:09.558Z,101540.34
2022-08-21T23:15:50.767Z,101552.09
2022-08-21T23:18:30.259Z,101539.53
2022-08-21T23:21:06.464Z,101559.31
2022-08-21T23:23:41.874Z,101548.09
2022-08-21T23:26:22.901Z,101543.84
2022-08-21T23:29:13.550Z,101536.72
2022-08-21T23:32:03.691Z,101523.03
2022-08-21T23:34:44.986Z,101539.63
2022-08-21T23:37:49.215Z,101544.19
2022-08-21T23:40:51.076Z,101540.84
2022-08-21T23:43:45.666Z,101544.28
2022-08-21T23:46:35.082Z,101554.84
2022-08-21T23:49:20.401Z,101540.69
2022-08-21T23:52:02.405Z,101532.06
2022-08-21T23:54:56.070Z,101534.53
2022-08-21T23:57:48.828Z,101539.44
